Time;durP1;ratioP1;P1;durP2;ratioP2;P2;SDS_P1;SDS_P2;PMS_P1;PMS_P2;Temp;Humidity;BMP_temperature;BMP_pressure;BME280_temperature;BME280_humidity;BME280_pressure;Samples;Min_cycle;Max_cycle;Signal;HPM_P1;HPM_P2
2023/07/27 00:00:38;;;;;;;;;;;;;;;;;;10528780;28;20044;-74
2023/07/27 00:05:40;;;;;;;1.20;0.70;;;;;;;;;;10524501;28;19920;-74
2023/07/27 00:10:44;;;;;;;3.13;1.20;;;;;;;;;;10523290;28;20453;-75
2023/07/27 00:15:47;;;;;;;;;;;;;;;;;;10526352;28;20036;-74
2023/07/27 00:20:49;;;;;;;2.55;1.25;;;;;;;;;;10525037;28;20249;-74
2023/07/27 00:25:53;;;;;;;2.17;1.30;;;;;;;;;;10522090;28;20048;-73
2023/07/27 00:30:56;;;;;;;;;;;;;;;;;;10519477;28;20044;-74
2023/07/27 00:35:59;;;;;;;1.10;0.57;;;;;;;;;;10523180;28;19970;-75
2023/07/27 00:41:04;;;;;;;1.25;0.50;;;;;;;;;;10525751;28;20038;-74
2023/07/27 00:46:07;;;;;;;2.30;1.08;;;;;;;;;;10528314;28;20068;-74
2023/07/27 00:51:11;;;;;;;5.65;1.13;;;;;;;;;;10528402;28;20043;-74
2023/07/27 00:56:15;;;;;;;2.33;1.25;;;;;;;;;;10527240;28;20057;-74
2023/07/27 01:01:18;;;;;;;;;;;;;;;;;;10519734;28;20135;-75
2023/07/27 01:06:20;;;;;;;1.92;1.05;;;;;;;;;;10527704;28;19989;-74
2023/07/27 01:11:30;;;;;;;3.55;1.73;;;;;;;;;;10525094;28;20036;-74
2023/07/27 01:16:38;;;;;;;4.18;0.95;;;;;;;;;;10521751;28;20028;-75
2023/07/27 01:21:42;;;;;;;3.28;1.58;;;;;;;;;;10523169;28;20040;-74
2023/07/27 01:27:02;;;;;;;4.22;1.83;;;;;;;;;;10523619;28;20122;-75
2023/07/27 01:32:07;;;;;;;4.10;1.75;;;;;;;;;;10529870;28;20122;-75
2023/07/27 01:37:14;;;;;;;2.50;1.42;;;;;;;;;;10531814;28;20032;-74
2023/07/27 01:42:17;;;;;;;3.65;1.50;;;;;;;;;;10523362;28;20039;-74
2023/07/27 01:47:22;;;;;;;3.17;1.50;;;;;;;;;;10525984;28;20669;-76
2023/07/27 01:52:25;;;;;;;2.40;1.45;;;;;;;;;;10525916;28;20398;-74
2023/07/27 01:57:28;;;;;;;3.53;1.40;;;;;;;;;;10522854;28;20119;-75
2023/07/27 02:02:32;;;;;;;3.90;1.73;;;;;;;;;;10524267;28;20046;-74
2023/07/27 02:07:34;;;;;;;;;;;;;;;;;;10522587;28;20039;-74
2023/07/27 02:12:41;;;;;;;1.92;1.15;;;;;;;;;;10524071;28;19924;-75
2023/07/27 02:17:46;;;;;;;1.52;0.75;;;;;;;;;;10521802;28;20127;-74
2023/07/27 02:22:50;;;;;;;2.17;1.10;;;;;;;;;;10516766;28;20041;-74
2023/07/27 02:27:53;;;;;;;2.50;1.40;;;;;;;;;;10522783;28;20115;-74
2023/07/27 02:32:57;;;;;;;3.10;1.20;;;;;;;;;;10526628;28;20062;-75
2023/07/27 02:37:59;;;;;;;;;;;;;;;;;;10518625;28;20037;-75
2023/07/27 02:43:03;;;;;;;1.92;1.30;;;;;;;;;;10528696;28;20302;-75
2023/07/27 02:48:07;;;;;;;1.70;1.05;;;;;;;;;;10524363;28;20071;-73
2023/07/27 02:53:10;;;;;;;4.07;1.50;;;;;;;;;;10522342;28;20167;-73
2023/07/27 02:58:12;;;;;;;3.30;1.50;;;;;;;;;;10517492;28;20115;-74
2023/07/27 03:03:16;;;;;;;4.03;1.75;;;;;;;;;;10519293;28;20506;-74
2023/07/27 03:08:19;;;;;;;2.90;1.40;;;;;;;;;;10518548;28;20071;-74
2023/07/27 03:13:22;;;;;;;3.20;1.40;;;;;;;;;;10521005;28;20071;-74
2023/07/27 03:18:26;;;;;;;2.45;1.08;;;;;;;;;;10522459;28;20043;-75
2023/07/27 03:23:28;;;;;;;;;;;;;;;;;;10523596;28;20044;-75
2023/07/27 03:28:31;;;;;;;2.28;1.17;;;;;;;;;;10524278;28;20043;-74
2023/07/27 03:33:35;;;;;;;1.70;1.00;;;;;;;;;;10520343;28;20040;-75
2023/07/27 03:38:37;;;;;;;2.97;1.42;;;;;;;;;;10526553;28;20051;-74
2023/07/27 03:43:40;;;;;;;2.25;1.38;;;;;;;;;;10531020;28;20048;-74
2023/07/27 03:48:46;;;;;;;2.30;1.50;;;;;;;;;;10532610;28;20123;-75
2023/07/27 03:53:49;;;;;;;2.38;0.90;;;;;;;;;;10525904;28;20043;-75
2023/07/27 03:58:52;;;;;;;3.45;1.35;;;;;;;;;;10523420;28;20071;-74
2023/07/27 04:03:56;;;;;;;2.80;1.48;;;;;;;;;;10522259;28;20501;-73
2023/07/27 04:08:58;;;;;;;4.05;1.15;;;;;;;;;;10528008;28;20048;-74
2023/07/27 04:14:01;;;;;;;2.08;1.00;;;;;;;;;;10527924;28;20174;-74
2023/07/27 04:19:07;;;;;;;5.78;1.40;;;;;;;;;;10527517;28;20047;-74
2023/07/27 04:24:09;;;;;;;;;;;;;;;;;;10529005;28;20405;-74
2023/07/27 04:29:12;;;;;;;1.65;1.23;;;;;;;;;;10528713;28;19926;-74
2023/07/27 04:34:16;;;;;;;3.42;1.15;;;;;;;;;;10526493;28;20142;-75
2023/07/27 04:39:18;;;;;;;2.45;1.40;;;;;;;;;;10527654;28;20048;-76
2023/07/27 04:44:21;;;;;;;2.75;1.45;;;;;;;;;;10525845;28;20067;-77
2023/07/27 04:49:25;;;;;;;1.85;1.02;;;;;;;;;;10529245;28;20038;-76
2023/07/27 04:54:27;;;;;;;;;;;;;;;;;;10529517;28;20076;-75
2023/07/27 04:59:30;;;;;;;2.90;1.52;;;;;;;;;;10520650;28;19930;-75
2023/07/27 05:04:34;;;;;;;3.25;1.48;;;;;;;;;;10529319;28;20135;-76
2023/07/27 05:09:36;;;;;;;2.83;1.55;;;;;;;;;;10539741;27;20136;-74
2023/07/27 05:14:39;;;;;;;2.60;1.30;;;;;;;;;;10523141;28;20131;-75
2023/07/27 05:19:43;;;;;;;2.13;1.15;;;;;;;;;;10522847;28;20051;-74
2023/07/27 05:24:46;;;;;;;2.08;1.40;;;;;;;;;;10520527;28;20032;-73
2023/07/27 05:29:48;;;;;;;4.10;1.85;;;;;;;;;;10518393;28;20041;-74
2023/07/27 05:34:54;;;;;;;6.13;1.33;;;;;;;;;;10524174;28;20040;-75
2023/07/27 05:39:57;;;;;;;1.33;0.98;;;;;;;;;;10529568;28;20039;-74
2023/07/27 05:44:59;;;;;;;3.97;1.38;;;;;;;;;;10532009;28;20426;-75
2023/07/27 05:50:04;;;;;;;1.42;0.90;;;;;;;;;;10520445;28;20035;-75
2023/07/27 05:55:06;;;;;;;0.77;0.65;;;;;;;;;;10524890;28;20050;-75
2023/07/27 06:00:09;;;;;;;1.60;1.10;;;;;;;;;;10524347;28;20187;-74
2023/07/27 06:05:14;;;;;;;3.13;1.25;;;;;;;;;;10526892;28;20046;-74
2023/07/27 06:10:16;;;;;;;1.60;1.30;;;;;;;;;;10528792;28;20115;-75
2023/07/27 06:15:19;;;;;;;4.45;1.40;;;;;;;;;;10526168;28;20447;-74
2023/07/27 06:20:23;;;;;;;1.77;1.10;;;;;;;;;;10525562;28;20064;-74
2023/07/27 06:25:26;;;;;;;3.13;1.50;;;;;;;;;;10528922;28;20089;-74
2023/07/27 06:30:29;;;;;;;4.82;1.00;;;;;;;;;;10524403;28;20046;-75
2023/07/27 06:35:33;;;;;;;4.18;1.40;;;;;;;;;;10518518;28;20036;-74
2023/07/27 06:40:36;;;;;;;2.00;1.27;;;;;;;;;;10527312;28;20505;-75
2023/07/27 06:45:38;;;;;;;1.83;1.00;;;;;;;;;;10526117;28;20525;-75
2023/07/27 06:50:42;;;;;;;3.00;1.40;;;;;;;;;;10525023;28;20320;-74
2023/07/27 06:55:45;;;;;;;1.40;0.90;;;;;;;;;;10524305;28;20040;-75
2023/07/27 07:00:48;;;;;;;2.47;1.40;;;;;;;;;;10526861;28;20036;-74
2023/07/27 07:05:54;;;;;;;2.37;1.37;;;;;;;;;;10523995;28;20117;-75
2023/07/27 07:10:56;;;;;;;5.82;1.50;;;;;;;;;;10532124;28;20040;-75
2023/07/27 07:15:59;;;;;;;2.80;1.33;;;;;;;;;;10529837;28;20072;-75
2023/07/27 07:21:03;;;;;;;3.10;1.43;;;;;;;;;;10528023;28;20299;-75
2023/07/27 07:26:06;;;;;;;1.92;1.15;;;;;;;;;;10525387;28;20096;-75
2023/07/27 07:31:09;;;;;;;1.30;0.68;;;;;;;;;;10529295;28;20036;-75
2023/07/27 07:36:14;;;;;;;1.60;1.25;;;;;;;;;;10528927;28;20036;-75
2023/07/27 07:41:16;;;;;;;2.53;1.63;;;;;;;;;;10528277;28;20040;-75
2023/07/27 07:46:20;;;;;;;3.13;1.05;;;;;;;;;;10531883;28;20043;-75
2023/07/27 07:51:25;;;;;;;3.47;1.25;;;;;;;;;;10531194;28;20040;-76
2023/07/27 07:56:29;;;;;;;1.85;1.30;;;;;;;;;;10531998;28;20052;-75
2023/07/27 08:01:33;;;;;;;2.95;1.70;;;;;;;;;;10530736;28;20416;-76
2023/07/27 08:06:38;;;;;;;1.88;1.10;;;;;;;;;;10524623;28;20048;-76
2023/07/27 08:11:41;;;;;;;3.13;1.38;;;;;;;;;;10529805;28;20052;-76
2023/07/27 08:16:44;;;;;;;2.67;1.73;;;;;;;;;;10528650;28;20478;-76
2023/07/27 08:21:49;;;;;;;2.45;1.70;;;;;;;;;;10529407;28;20208;-77
2023/07/27 08:26:51;;;;;;;1.55;0.98;;;;;;;;;;10522236;28;20122;-76
2023/07/27 08:31:54;;;;;;;2.95;1.67;;;;;;;;;;10525691;28;20127;-76
2023/07/27 08:36:56;;;;;;;;;;;;;;;;;;10528963;28;20088;-76
2023/07/27 08:42:01;;;;;;;3.80;1.63;;;;;;;;;;10529865;28;19924;-78
2023/07/27 08:47:05;;;;;;;4.00;1.67;;;;;;;;;;10530236;28;20115;-77
2023/07/27 08:52:08;;;;;;;2.55;1.30;;;;;;;;;;10530210;28;20111;-77
2023/07/27 08:57:12;;;;;;;5.95;1.60;;;;;;;;;;10524254;28;20044;-76
2023/07/27 09:02:15;;;;;;;2.00;1.40;;;;;;;;;;10522816;28;20482;-76
2023/07/27 09:07:18;;;;;;;1.90;1.15;;;;;;;;;;10527023;28;20104;-76
2023/07/27 09:12:24;;;;;;;3.30;1.88;;;;;;;;;;10531217;28;20059;-75
2023/07/27 09:17:26;;;;;;;3.33;1.50;;;;;;;;;;10528128;28;20124;-75
2023/07/27 09:22:29;;;;;;;2.42;1.42;;;;;;;;;;10529808;28;20040;-74
2023/07/27 09:27:32;;;;;;;;;;;;;;;;;;10534581;27;20048;-75
2023/07/27 09:32:36;;;;;;;5.15;1.73;;;;;;;;;;10526996;28;19920;-75
2023/07/27 09:37:42;;;;;;;3.05;1.65;;;;;;;;;;10522566;28;20067;-75
2023/07/27 09:42:45;;;;;;;2.88;1.63;;;;;;;;;;10528148;28;20047;-75
2023/07/27 09:47:51;;;;;;;2.40;1.50;;;;;;;;;;10530325;28;20208;-76
2023/07/27 09:52:56;;;;;;;5.55;1.63;;;;;;;;;;10521960;28;20046;-76
2023/07/27 09:57:59;;;;;;;2.38;1.50;;;;;;;;;;10525329;28;20135;-75
2023/07/27 10:03:03;;;;;;;2.75;1.55;;;;;;;;;;10524378;28;20085;-76
2023/07/27 10:08:12;;;;;;;4.13;1.85;;;;;;;;;;10526855;28;20449;-76
2023/07/27 10:13:32;;;;;;;2.97;1.45;;;;;;;;;;10527125;28;20040;-76
2023/07/27 10:18:39;;;;;;;2.33;1.27;;;;;;;;;;10525906;28;20048;-76
2023/07/27 10:23:52;;;;;;;2.83;1.38;;;;;;;;;;10524636;28;20203;-76
2023/07/27 10:28:54;;;;;;;2.40;1.20;;;;;;;;;;10529056;28;20036;-76
2023/07/27 10:34:12;;;;;;;3.13;1.63;;;;;;;;;;10531302;28;20052;-77
2023/07/27 10:39:28;;;;;;;8.80;2.05;;;;;;;;;;10521035;28;20403;-76
2023/07/27 10:44:41;;;;;;;2.55;1.30;;;;;;;;;;10533175;28;20044;-75
2023/07/27 10:49:46;;;;;;;3.72;1.67;;;;;;;;;;10534107;28;20036;-75
2023/07/27 10:54:49;;;;;;;4.82;2.00;;;;;;;;;;10533312;28;20068;-75
2023/07/27 10:59:53;;;;;;;7.25;2.40;;;;;;;;;;10544224;28;20040;-74
2023/07/27 11:04:57;;;;;;;4.00;2.03;;;;;;;;;;10561555;28;20052;-75
2023/07/27 11:10:00;;;;;;;3.25;1.90;;;;;;;;;;10533451;28;20172;-76
2023/07/27 11:15:15;;;;;;;3.80;1.70;;;;;;;;;;10533124;28;20035;-76
2023/07/27 11:20:20;;;;;;;3.10;1.83;;;;;;;;;;10536289;28;20090;-76
2023/07/27 11:25:23;;;;;;;3.22;1.75;;;;;;;;;;10536887;28;20051;-75
2023/07/27 11:30:26;;;;;;;2.80;1.38;;;;;;;;;;10534824;28;20490;-76
2023/07/27 11:35:30;;;;;;;2.30;1.40;;;;;;;;;;10533940;28;20140;-76
2023/07/27 11:40:33;;;;;;;3.90;1.60;;;;;;;;;;10534925;28;20075;-76
2023/07/27 11:45:36;;;;;;;2.08;1.40;;;;;;;;;;10528970;28;20044;-76
2023/07/27 11:50:40;;;;;;;1.10;1.00;;;;;;;;;;10537751;28;20120;-77
2023/07/27 11:55:42;;;;;;;5.63;2.17;;;;;;;;;;10533993;28;20119;-76
2023/07/27 12:00:45;;;;;;;;;;;;;;;;;;10530010;28;20355;-75
2023/07/27 12:05:49;;;;;;;3.83;1.60;;;;;;;;;;10537483;28;19930;-74
2023/07/27 12:10:52;;;;;;;2.08;1.30;;;;;;;;;;10532791;28;20040;-75
2023/07/27 12:15:58;;;;;;;2.10;1.40;;;;;;;;;;10520446;28;20450;-75
2023/07/27 12:21:05;;;;;;;1.02;0.80;;;;;;;;;;10537226;27;20036;-75
2023/07/27 12:26:28;;;;;;;6.47;2.08;;;;;;;;;;10523376;28;20036;-76
2023/07/27 12:31:30;;;;;;;;;;;;;;;;;;10531455;28;20036;-75
2023/07/27 12:36:37;;;;;;;4.20;1.90;;;;;;;;;;10531360;28;19924;-76
2023/07/27 12:41:40;;;;;;;2.38;1.42;;;;;;;;;;10528186;28;20067;-75
2023/07/27 12:47:03;;;;;;;;;;;;;;;;;;10544603;28;20407;-75
2023/07/27 12:52:05;;;;;;;;;;;;;;;;;;10529920;28;20358;-75
2023/07/27 12:57:09;;;;;;;5.60;1.75;;;;;;;;;;10534675;28;20488;-74
2023/07/27 13:02:12;;;;;;;2.25;1.35;;;;;;;;;;10531311;28;20052;-75
2023/07/27 13:07:15;;;;;;;3.10;1.83;;;;;;;;;;10529244;28;20051;-74
2023/07/27 13:12:19;;;;;;;1.98;1.30;;;;;;;;;;10528449;28;20050;-73
2023/07/27 13:17:21;;;;;;;3.28;1.30;;;;;;;;;;10501210;28;20511;-75
2023/07/27 13:22:24;;;;;;;1.63;1.00;;;;;;;;;;10509799;28;20879;-75
2023/07/27 13:27:28;;;;;;;1.42;1.10;;;;;;;;;;10519911;28;20519;-75
2023/07/27 13:32:31;;;;;;;2.03;1.48;;;;;;;;;;10510196;28;20062;-74
2023/07/27 13:37:33;;;;;;;3.47;1.80;;;;;;;;;;10521239;28;20122;-75
2023/07/27 13:42:38;;;;;;;5.63;1.40;;;;;;;;;;10519540;28;20502;-75
2023/07/27 13:47:40;;;;;;;2.05;1.17;;;;;;;;;;10509093;28;20113;-74
2023/07/27 13:53:03;;;;;;;2.25;1.42;;;;;;;;;;10518088;28;20047;-74
2023/07/27 13:58:09;;;;;;;2.05;1.30;;;;;;;;;;10515150;28;20123;-74
2023/07/27 14:03:11;;;;;;;3.75;1.42;;;;;;;;;;10515452;28;20063;-74
2023/07/27 14:08:14;;;;;;;2.55;1.52;;;;;;;;;;10513468;28;20047;-74
2023/07/27 14:13:18;;;;;;;2.10;1.20;;;;;;;;;;10508280;28;20390;-74
2023/07/27 14:18:22;;;;;;;5.82;1.50;;;;;;;;;;10517757;28;20042;-74
2023/07/27 14:23:24;;;;;;;5.57;1.38;;;;;;;;;;10522495;28;20036;-74
2023/07/27 14:28:28;;;;;;;3.65;1.67;;;;;;;;;;10520742;28;20048;-73
2023/07/27 14:33:32;;;;;;;2.25;1.42;;;;;;;;;;10517292;28;20040;-74
2023/07/27 14:38:35;;;;;;;;;;;;;;;;;;10520509;28;20048;-73
2023/07/27 14:43:39;;;;;;;6.30;2.28;;;;;;;;;;10518828;28;19930;-74
2023/07/27 14:48:45;;;;;;;11.02;1.70;;;;;;;;;;10515185;28;20097;-73
2023/07/27 14:53:51;;;;;;;3.38;1.60;;;;;;;;;;10515324;28;20044;-74
2023/07/27 14:58:58;;;;;;;2.40;1.45;;;;;;;;;;10516555;28;20043;-74
2023/07/27 15:04:10;;;;;;;;;;;;;;;;;;10514625;28;20097;-74
2023/07/27 15:09:16;;;;;;;2.90;1.67;;;;;;;;;;10512967;28;19928;-74
2023/07/27 15:14:20;;;;;;;3.38;1.70;;;;;;;;;;10521364;28;20093;-74
2023/07/27 15:19:23;;;;;;;3.20;1.20;;;;;;;;;;10517916;28;20414;-73
2023/07/27 15:24:25;;;;;;;1.55;1.10;;;;;;;;;;10513957;28;20491;-74
2023/07/27 15:29:29;;;;;;;1.50;0.77;;;;;;;;;;10518965;28;20492;-75
2023/07/27 15:34:32;;;;;;;5.03;1.67;;;;;;;;;;10523601;28;20036;-75
2023/07/27 15:39:36;;;;;;;3.80;1.40;;;;;;;;;;10520659;28;20040;-76
2023/07/27 15:44:40;;;;;;;4.30;1.65;;;;;;;;;;10518549;28;20040;-76
2023/07/27 15:49:43;;;;;;;4.78;1.92;;;;;;;;;;10526688;28;20133;-75
2023/07/27 15:54:46;;;;;;;7.60;1.95;;;;;;;;;;10526350;28;20044;-75
2023/07/27 15:59:50;;;;;;;2.72;1.58;;;;;;;;;;10528225;28;20123;-76
2023/07/27 16:04:52;;;;;;;3.08;1.65;;;;;;;;;;10525245;28;20063;-76
2023/07/27 16:09:55;;;;;;;2.67;1.83;;;;;;;;;;10527439;28;20127;-75
2023/07/27 16:14:58;;;;;;;;;;;;;;;;;;10530264;28;20073;-74
2023/07/27 16:20:04;;;;;;;5.47;1.65;;;;;;;;;;10529686;28;19920;-76
2023/07/27 16:25:07;;;;;;;3.08;1.35;;;;;;;;;;10531255;28;20487;-76
2023/07/27 16:30:11;;;;;;;3.15;1.80;;;;;;;;;;10528088;28;20032;-76
2023/07/27 16:35:15;;;;;;;2.90;1.60;;;;;;;;;;10520440;28;20071;-76
2023/07/27 16:40:18;;;;;;;2.83;1.15;;;;;;;;;;10525771;28;20513;-77
2023/07/27 16:45:21;;;;;;;2.22;0.90;;;;;;;;;;10531412;28;20036;-75
2023/07/27 16:50:25;;;;;;;3.92;1.67;;;;;;;;;;10529692;28;20059;-75
2023/07/27 16:55:32;;;;;;;2.88;1.70;;;;;;;;;;10534520;28;20467;-75
2023/07/27 17:00:35;;;;;;;9.00;2.20;;;;;;;;;;10527414;28;20117;-76
2023/07/27 17:05:40;;;;;;;2.67;1.95;;;;;;;;;;10526472;28;20459;-75
2023/07/27 17:10:43;;;;;;;3.03;1.67;;;;;;;;;;10525030;28;20055;-75
2023/07/27 17:15:47;;;;;;;2.85;1.75;;;;;;;;;;10529144;28;20660;-74
2023/07/27 17:20:54;;;;;;;4.18;2.20;;;;;;;;;;10528232;28;20051;-76
2023/07/27 17:25:57;;;;;;;6.45;3.35;;;;;;;;;;10531061;28;20449;-76
2023/07/27 17:30:59;;;;;;;;;;;;;;;;;;10527132;28;20059;-76
2023/07/27 17:36:04;;;;;;;5.55;2.30;;;;;;;;;;10519980;28;19920;-76
2023/07/27 17:41:07;;;;;;;5.68;2.65;;;;;;;;;;10524127;28;20064;-75
2023/07/27 17:46:10;;;;;;;4.10;2.00;;;;;;;;;;10533787;28;20039;-76
2023/07/27 17:51:14;;;;;;;7.07;3.60;;;;;;;;;;10528425;28;20040;-75
2023/07/27 17:56:16;;;;;;;5.47;2.50;;;;;;;;;;10532058;28;20233;-75
2023/07/27 18:01:19;;;;;;;4.07;2.20;;;;;;;;;;10524534;28;20195;-76
2023/07/27 18:06:23;;;;;;;8.90;3.60;;;;;;;;;;10522491;28;20317;-76
2023/07/27 18:11:25;;;;;;;5.72;2.28;;;;;;;;;;10525849;28;20039;-75
2023/07/27 18:16:28;;;;;;;4.20;2.17;;;;;;;;;;10524787;28;20107;-75
2023/07/27 18:21:33;;;;;;;3.60;1.80;;;;;;;;;;10524662;28;20047;-76
2023/07/27 18:26:36;;;;;;;4.55;2.20;;;;;;;;;;10529421;28;20094;-75
2023/07/27 18:31:40;;;;;;;4.13;2.00;;;;;;;;;;10518961;28;20063;-77
2023/07/27 18:36:44;;;;;;;9.47;2.60;;;;;;;;;;10529379;28;20468;-75
2023/07/27 18:41:47;;;;;;;5.60;2.50;;;;;;;;;;10529597;28;20105;-74
2023/07/27 18:46:49;;;;;;;4.87;2.37;;;;;;;;;;10526438;28;20425;-75
2023/07/27 18:51:53;;;;;;;6.07;2.33;;;;;;;;;;10523717;28;20070;-75
2023/07/27 18:56:56;;;;;;;7.57;2.85;;;;;;;;;;10520863;28;20047;-75
2023/07/27 19:01:59;;;;;;;4.27;2.23;;;;;;;;;;10519810;28;20038;-75
2023/07/27 19:07:03;;;;;;;5.97;2.43;;;;;;;;;;10530749;28;20046;-74
2023/07/27 19:12:05;;;;;;;4.72;2.42;;;;;;;;;;10521367;28;20032;-75
2023/07/27 19:17:08;;;;;;;6.70;3.35;;;;;;;;;;10523010;28;20048;-74
2023/07/27 19:22:12;;;;;;;6.33;3.10;;;;;;;;;;10546419;27;20079;-74
2023/07/27 19:27:15;;;;;;;6.28;3.28;;;;;;;;;;10533426;28;20513;-74
2023/07/27 19:32:17;;;;;;;6.80;3.10;;;;;;;;;;10533330;28;20040;-75
2023/07/27 19:37:21;;;;;;;7.90;3.20;;;;;;;;;;10528613;28;20386;-75
2023/07/27 19:42:24;;;;;;;5.85;2.42;;;;;;;;;;10534649;28;20390;-75
2023/07/27 19:47:27;;;;;;;6.60;2.80;;;;;;;;;;10532031;28;20128;-74
2023/07/27 19:52:31;;;;;;;6.63;2.60;;;;;;;;;;10528258;28;20032;-74
2023/07/27 19:57:34;;;;;;;5.65;2.67;;;;;;;;;;10525123;28;20044;-74
2023/07/27 20:02:36;;;;;;;6.50;3.08;;;;;;;;;;10525152;28;20042;-74
2023/07/27 20:07:44;;;;;;;5.15;2.42;;;;;;;;;;10526522;28;20056;-74
2023/07/27 20:12:46;;;;;;;5.88;2.60;;;;;;;;;;10528331;28;20032;-73
2023/07/27 20:17:49;;;;;;;4.80;2.33;;;;;;;;;;10529671;28;20056;-75
2023/07/27 20:22:53;;;;;;;5.07;2.40;;;;;;;;;;10534041;28;20471;-75
2023/07/27 20:27:56;;;;;;;5.97;2.88;;;;;;;;;;10532565;28;20672;-76
2023/07/27 20:32:58;;;;;;;4.07;2.13;;;;;;;;;;10529110;28;20109;-75
2023/07/27 20:38:03;;;;;;;3.40;1.67;;;;;;;;;;10527589;28;20047;-74
2023/07/27 20:43:06;;;;;;;4.53;1.55;;;;;;;;;;10529087;28;20035;-74
2023/07/27 20:48:08;;;;;;;4.17;2.07;;;;;;;;;;10524366;28;20068;-74
2023/07/27 20:53:15;;;;;;;5.00;2.65;;;;;;;;;;10524284;28;20332;-75
2023/07/27 20:58:18;;;;;;;5.47;2.58;;;;;;;;;;10524305;28;20131;-75
2023/07/27 21:03:21;;;;;;;5.73;2.63;;;;;;;;;;10525600;28;20116;-74
2023/07/27 21:08:25;;;;;;;5.07;2.67;;;;;;;;;;10525812;28;20045;-74
2023/07/27 21:13:28;;;;;;;5.00;2.38;;;;;;;;;;10529677;28;20040;-75
2023/07/27 21:18:31;;;;;;;4.82;2.60;;;;;;;;;;10527791;28;20101;-75
2023/07/27 21:23:34;;;;;;;;;;;;;;;;;;10530958;28;20757;-76
2023/07/27 21:28:38;;;;;;;6.75;2.25;;;;;;;;;;10524728;28;20537;-73
2023/07/27 21:33:41;;;;;;;6.38;2.53;;;;;;;;;;10524830;28;20120;-75
2023/07/27 21:38:44;;;;;;;5.65;2.25;;;;;;;;;;10522513;28;20093;-74
2023/07/27 21:43:49;;;;;;;5.63;2.83;;;;;;;;;;10525180;28;20036;-75
2023/07/27 21:48:55;;;;;;;4.75;2.40;;;;;;;;;;10529335;28;20079;-74
2023/07/27 21:54:00;;;;;;;5.78;2.47;;;;;;;;;;10526512;28;20142;-74
2023/07/27 21:59:04;;;;;;;8.05;2.70;;;;;;;;;;10522981;28;20060;-75
2023/07/27 22:04:07;;;;;;;5.00;2.40;;;;;;;;;;10517468;28;20158;-75
2023/07/27 22:09:10;;;;;;;6.47;2.47;;;;;;;;;;10521533;28;20118;-73
2023/07/27 22:14:15;;;;;;;4.57;2.58;;;;;;;;;;10528453;28;20048;-74
2023/07/27 22:19:18;;;;;;;8.23;2.28;;;;;;;;;;10524244;28;20398;-74
2023/07/27 22:24:21;;;;;;;5.95;2.55;;;;;;;;;;10521050;28;20131;-74
2023/07/27 22:29:26;;;;;;;6.32;2.80;;;;;;;;;;10522582;28;20134;-74
2023/07/27 22:34:29;;;;;;;3.53;2.22;;;;;;;;;;10521753;28;20032;-75
2023/07/27 22:39:32;;;;;;;4.95;2.33;;;;;;;;;;10527540;28;20459;-75
2023/07/27 22:44:36;;;;;;;4.90;2.20;;;;;;;;;;10530639;28;20047;-73
2023/07/27 22:49:40;;;;;;;9.82;2.72;;;;;;;;;;10541214;28;20059;-72
2023/07/27 22:54:43;;;;;;;3.70;2.28;;;;;;;;;;10545914;28;20032;-74
2023/07/27 22:59:48;;;;;;;6.88;2.80;;;;;;;;;;10536894;28;20048;-72
2023/07/27 23:04:51;;;;;;;3.63;2.00;;;;;;;;;;10534138;28;20126;-75
2023/07/27 23:09:54;;;;;;;3.70;1.57;;;;;;;;;;10535325;28;20050;-75
2023/07/27 23:14:58;;;;;;;5.23;2.33;;;;;;;;;;10534905;28;20050;-74
2023/07/27 23:20:01;;;;;;;7.95;3.08;;;;;;;;;;10534365;28;20048;-75
2023/07/27 23:25:06;;;;;;;5.05;2.58;;;;;;;;;;10526292;28;20133;-74
2023/07/27 23:30:11;;;;;;;5.07;2.33;;;;;;;;;;10525762;28;20089;-75
2023/07/27 23:35:14;;;;;;;6.45;2.33;;;;;;;;;;10531735;28;20043;-74
2023/07/27 23:40:17;;;;;;;6.43;2.40;;;;;;;;;;10524996;28;20040;-75
2023/07/27 23:45:21;;;;;;;6.82;2.40;;;;;;;;;;10535761;28;20046;-75
2023/07/27 23:50:23;;;;;;;4.65;2.28;;;;;;;;;;10531041;28;20048;-74
2023/07/27 23:55:26;;;;;;;7.28;2.40;;;;;;;;;;10531187;28;20195;-74
